Time;durP1;ratioP1;P1;durP2;ratioP2;P2;SDS_P1;SDS_P2;PMS_P1;PMS_P2;Temp;Humidity;BMP_temperature;BMP_pressure;BME280_temperature;BME280_humidity;BME280_pressure;Samples;Min_cycle;Max_cycle;Signal;HPM_P1;HPM_P2
2022/06/08 00:00:19;;;;;;;4.00;3.43;;;;;;;16.60;54.45;100840.69;4922948;28;100256;-46
2022/06/08 00:02:49;;;;;;;5.63;3.73;;;;;;;16.52;54.15;100837.00;4925898;28;97113;-46
2022/06/08 00:05:15;;;;;;;13.00;4.30;;;;;;;16.46;54.31;100837.06;4922841;28;96981;-46
2022/06/08 00:07:41;;;;;;;4.23;3.93;;;;;;;16.44;54.22;100840.38;4925552;28;97592;-46
2022/06/08 00:10:08;;;;;;;3.60;3.40;;;;;;;16.38;54.30;100836.19;4922415;28;97387;-47
2022/06/08 00:12:34;;;;;;;3.63;3.40;;;;;;;16.35;54.34;100835.22;4923585;28;97111;-48
2022/06/08 00:15:00;;;;;;;4.13;3.83;;;;;;;16.32;54.40;100835.50;4921311;28;96982;-46
2022/06/08 00:17:26;;;;;;;3.57;3.37;;;;;;;16.30;54.32;100824.94;4921272;28;101172;-46
2022/06/08 00:19:52;;;;;;;4.70;4.23;;;;;;;16.27;54.23;100823.22;4924099;28;97165;-47
2022/06/08 00:22:17;;;;;;;4.13;3.80;;;;;;;16.20;54.25;100821.06;4925911;28;97152;-46
2022/06/08 00:24:43;;;;;;;4.17;3.87;;;;;;;16.12;54.54;100820.16;4930632;28;97677;-47
2022/06/08 00:27:09;;;;;;;4.57;4.17;;;;;;;16.09;54.59;100824.00;4926288;28;97083;-47
2022/06/08 00:29:35;;;;;;;4.63;4.33;;;;;;;16.07;54.71;100818.22;4919841;28;97113;-46
2022/06/08 00:32:00;;;;;;;4.20;3.90;;;;;;;16.05;54.56;100814.47;4925722;28;97724;-46
2022/06/08 00:34:26;;;;;;;4.57;3.97;;;;;;;16.02;54.56;100815.50;4921327;28;97270;-47
2022/06/08 00:36:51;;;;;;;4.87;4.47;;;;;;;15.99;54.65;100816.59;4921124;28;97390;-47
2022/06/08 00:39:16;;;;;;;5.30;4.33;;;;;;;15.94;54.80;100818.16;4924929;28;97177;-46
2022/06/08 00:42:04;;;;;;;4.40;4.00;;;;;;;15.94;55.00;100812.59;4924982;28;97263;-46
2022/06/08 00:44:36;;;;;;;4.50;4.10;;;;;;;15.94;55.17;100812.59;4926559;28;97148;-47
2022/06/08 00:47:03;;;;;;;4.60;4.20;;;;;;;15.93;55.12;100819.41;4920870;28;98696;-46
2022/06/08 00:49:41;;;;;;;5.20;4.70;;;;;;;15.91;55.29;100804.56;4924638;28;97306;-46
2022/06/08 00:52:07;;;;;;;5.13;4.70;;;;;;;15.88;54.83;100803.59;4917978;28;96999;-47
2022/06/08 00:54:36;;;;;;;5.27;4.87;;;;;;;15.85;54.99;100803.91;4926229;28;97234;-46
2022/06/08 00:57:08;;;;;;;4.73;4.33;;;;;;;15.81;55.19;100804.22;4917516;28;102798;-47
2022/06/08 00:59:36;;;;;;;4.50;4.20;;;;;;;15.77;55.11;100807.28;4921768;28;100399;-46
2022/06/08 01:02:01;;;;;;;4.97;4.47;;;;;;;15.77;55.07;100805.78;4920826;28;96780;-46
2022/06/08 01:04:29;;;;;;;4.43;4.03;;;;;;;15.71;55.18;100801.06;4926624;28;97349;-46
2022/06/08 01:06:57;;;;;;;5.20;4.80;;;;;;;15.70;55.04;100804.34;4915366;28;98552;-46
2022/06/08 01:09:38;;;;;;;4.77;4.20;;;;;;;15.64;55.31;100801.63;4925358;28;98900;-46
2022/06/08 01:12:10;;;;;;;4.30;3.97;;;;;;;15.59;55.42;100796.94;4916687;28;97421;-46
2022/06/08 01:14:36;;;;;;;5.10;4.70;;;;;;;15.56;55.14;100788.91;4919887;28;98921;-47
2022/06/08 01:17:04;;;;;;;4.70;4.30;;;;;;;15.50;55.18;100788.22;4916934;28;97492;-47
2022/06/08 01:19:34;;;;;;;5.10;4.70;;;;;;;15.45;55.37;100794.56;4918231;28;97422;-46
2022/06/08 01:22:01;;;;;;;4.73;4.03;;;;;;;15.40;55.15;100779.47;4922435;28;96829;-48
2022/06/08 01:24:27;;;;;;;4.90;4.50;;;;;;;15.37;55.09;100780.53;4921349;28;97681;-46
2022/06/08 01:27:12;;;;;;;4.87;4.40;;;;;;;15.34;55.40;100780.81;4921855;28;102855;-46
2022/06/08 01:29:43;;;;;;;4.43;4.03;;;;;;;15.30;55.59;100777.59;4923945;28;102565;-45
2022/06/08 01:32:11;;;;;;;4.20;3.90;;;;;;;15.24;55.22;100777.66;4921052;28;97700;-46
2022/06/08 01:34:43;;;;;;;5.13;4.30;;;;;;;15.20;55.79;100793.81;4917947;28;96931;-47
2022/06/08 01:37:30;;;;;;;4.60;4.30;;;;;;;15.16;56.21;100770.47;4916042;28;101011;-45
2022/06/08 01:40:14;;;;;;;4.47;4.17;;;;;;;15.14;56.21;100761.88;4918016;28;100141;-46
2022/06/08 01:43:25;;;;;;;4.33;4.03;;;;;;;15.10;56.28;100761.44;4920599;28;97159;-46
2022/06/08 01:46:09;;;;;;;4.73;3.80;;;;;;;15.08;55.57;100758.44;4918190;28;97260;-46
2022/06/08 01:49:01;;;;;;;4.83;4.40;;;;;;;15.07;56.24;100754.19;4923504;28;98850;-46
2022/06/08 01:51:53;;;;;;;4.90;4.50;;;;;;;15.00;56.09;100755.50;4922705;28;101546;-46
2022/06/08 01:55:00;;;;;;;5.10;4.60;;;;;;;14.94;56.25;100752.78;4921738;28;96824;-46
2022/06/08 01:57:47;;;;;;;4.23;3.93;;;;;;;14.93;55.83;100751.31;4913398;28;97093;-46
2022/06/08 02:00:23;;;;;;;4.63;4.20;;;;;;;14.95;56.28;100748.75;4916964;28;101374;-47
2022/06/08 02:02:48;;;;;;;4.40;4.10;;;;;;;14.94;55.74;100744.47;4919762;28;97208;-46
2022/06/08 02:05:23;;;;;;;5.20;4.70;;;;;;;14.95;56.24;100746.00;4917506;28;97020;-47
2022/06/08 02:08:00;;;;;;;5.20;4.80;;;;;;;14.91;56.08;100736.47;4919218;28;97717;-46
2022/06/08 02:10:33;;;;;;;4.60;4.30;;;;;;;14.87;56.00;100739.50;4921921;28;98136;-46
2022/06/08 02:13:06;;;;;;;4.83;4.43;;;;;;;14.86;55.79;100740.78;4924140;28;97014;-45
2022/06/08 02:15:36;;;;;;;4.97;4.57;;;;;;;14.82;55.86;100737.56;4922217;28;96970;-46
2022/06/08 02:18:07;;;;;;;5.30;4.80;;;;;;;14.81;55.94;100736.06;4918939;28;96797;-47
2022/06/08 02:20:52;;;;;;;4.60;4.20;;;;;;;14.84;56.74;100734.28;4922021;28;99595;-45
2022/06/08 02:23:26;;;;;;;4.33;4.00;;;;;;;14.85;56.09;100735.78;4920049;28;100196;-45
2022/06/08 02:26:00;;;;;;;4.73;4.33;;;;;;;14.86;56.24;100735.25;4920610;28;97929;-48
2022/06/08 02:28:39;;;;;;;4.47;4.07;;;;;;;14.84;56.45;100728.72;4923135;28;97728;-47
2022/06/08 02:31:20;;;;;;;8.35;4.65;;;;;;;14.81;56.54;100732.53;4922686;28;102047;-47
2022/06/08 02:36:42;;;;;;;4.33;4.03;;;;;;;14.70;56.28;100736.16;4919469;28;96770;-45
2022/06/08 02:39:22;;;;;;;4.20;3.83;;;;;;;14.65;56.69;100728.69;4921245;28;97250;-46
2022/06/08 02:41:54;;;;;;;4.57;4.23;;;;;;;14.55;56.09;100730.28;4922391;28;96874;-46
2022/06/08 02:44:25;;;;;;;4.53;4.13;;;;;;;14.48;56.38;100730.09;4918993;28;97551;-46
2022/06/08 02:47:04;;;;;;;4.20;3.90;;;;;;;14.47;57.00;100726.56;4918363;28;97044;-47
2022/06/08 02:49:32;;;;;;;4.90;4.10;;;;;;;14.44;56.22;100721.34;4927879;28;96864;-46
2022/06/08 02:52:02;;;;;;;5.23;4.13;;;;;;;14.44;56.37;100724.84;4918163;28;97196;-48
2022/06/08 02:54:29;;;;;;;4.30;4.00;;;;;;;14.42;56.26;100721.84;4928259;28;97783;-49
2022/06/08 02:57:19;;;;;;;4.57;4.00;;;;;;;14.43;57.14;100728.13;4919892;28;96699;-46
2022/06/08 02:59:54;;;;;;;4.27;3.93;;;;;;;14.42;56.23;100721.84;4922407;28;98351;-46
2022/06/08 03:02:38;;;;;;;5.13;4.73;;;;;;;14.46;56.80;100719.53;4921163;28;102264;-45
2022/06/08 03:05:19;;;;;;;4.27;3.90;;;;;;;14.43;56.70;100722.59;4920219;28;101825;-46
2022/06/08 03:07:56;;;;;;;4.20;3.90;;;;;;;14.43;56.53;100720.59;4919466;28;97052;-46
2022/06/08 03:10:24;;;;;;;4.50;4.20;;;;;;;14.39;56.22;100720.13;4917920;28;97356;-45
2022/06/08 03:13:04;;;;;;;5.07;4.50;;;;;;;14.39;56.82;100719.34;4923227;28;96937;-49
2022/06/08 03:15:31;;;;;;;6.23;4.77;;;;;;;14.35;56.33;100716.84;4913183;28;97084;-46
2022/06/08 03:17:57;;;;;;;4.53;4.10;;;;;;;14.36;56.26;100720.38;4922766;28;97408;-46
2022/06/08 03:20:24;;;;;;;5.77;5.30;;;;;;;14.32;56.35;100720.69;4923571;28;97320;-50
2022/06/08 03:22:49;;;;;;;4.70;4.30;;;;;;;14.33;56.26;100729.75;4921386;28;97007;-45
2022/06/08 03:25:15;;;;;;;4.40;4.00;;;;;;;14.33;56.31;100730.47;4922519;28;98347;-45
2022/06/08 03:27:43;;;;;;;4.70;4.37;;;;;;;14.35;56.45;100732.72;4920647;28;97195;-46
2022/06/08 03:30:09;;;;;;;3.90;3.60;;;;;;;14.36;56.35;100723.16;4921167;28;96988;-47
2022/06/08 03:32:34;;;;;;;5.40;4.90;;;;;;;14.35;56.25;100733.47;4916837;28;97190;-45
2022/06/08 03:35:00;;;;;;;5.20;4.70;;;;;;;14.34;56.47;100734.75;4920710;28;97341;-46
2022/06/08 03:37:25;;;;;;;4.93;4.53;;;;;;;14.30;56.53;100737.06;4922913;28;97230;-47
2022/06/08 03:39:51;;;;;;;4.60;4.10;;;;;;;14.28;56.61;100725.72;4925389;28;97061;-47
2022/06/08 03:42:16;;;;;;;7.90;4.47;;;;;;;14.32;56.83;100734.50;4923648;28;96957;-46
2022/06/08 03:44:41;;;;;;;5.40;4.47;;;;;;;14.32;56.71;100731.75;4916479;28;97110;-45
2022/06/08 03:47:14;;;;;;;4.73;4.37;;;;;;;14.33;56.96;100730.47;4912412;28;96731;-46
2022/06/08 03:49:39;;;;;;;4.57;4.23;;;;;;;14.33;56.69;100727.69;4916290;28;97275;-46
2022/06/08 03:52:14;;;;;;;4.53;4.23;;;;;;;14.37;56.81;100730.97;4918989;28;97407;-46
2022/06/08 03:54:44;;;;;;;4.20;3.90;;;;;;;14.41;56.63;100727.91;4923025;28;101654;-47
2022/06/08 03:57:11;;;;;;;4.77;4.37;;;;;;;14.46;56.82;100729.88;4910111;28;97502;-49
2022/06/08 03:59:40;;;;;;;4.90;4.50;;;;;;;14.51;56.97;100735.34;4919263;28;97221;-48
2022/06/08 04:02:06;;;;;;;4.53;4.13;;;;;;;14.56;57.06;100734.56;4923342;28;97438;-47
2022/06/08 04:04:33;;;;;;;4.50;4.10;;;;;;;14.60;56.90;100732.25;4919106;28;97012;-47
2022/06/08 04:06:58;;;;;;;4.80;4.40;;;;;;;14.62;56.84;100731.72;4920736;28;96989;-46
2022/06/08 04:09:23;;;;;;;4.57;4.27;;;;;;;14.64;56.83;100724.41;4919584;28;96953;-46
2022/06/08 04:11:49;;;;;;;4.37;4.07;;;;;;;14.68;57.03;100732.41;4922256;28;98599;-47
2022/06/08 04:14:14;;;;;;;4.40;4.03;;;;;;;14.68;56.93;100730.41;4922976;28;97750;-46
2022/06/08 04:16:40;;;;;;;4.10;3.80;;;;;;;14.72;57.08;100733.63;4921915;28;97002;-48
2022/06/08 04:19:05;;;;;;;5.20;4.43;;;;;;;14.73;57.16;100735.13;4921782;28;97077;-46
2022/06/08 04:21:31;;;;;;;5.10;4.60;;;;;;;14.75;57.10;100727.06;4921064;28;97678;-47
2022/06/08 04:23:57;;;;;;;4.37;4.07;;;;;;;14.77;57.07;100730.06;4927170;28;97113;-45
2022/06/08 04:26:23;;;;;;;4.03;3.70;;;;;;;14.80;57.39;100731.03;4920868;28;97158;-47
2022/06/08 04:28:49;;;;;;;4.33;3.30;;;;;;;14.85;57.19;100735.78;4922912;28;96825;-45
2022/06/08 04:31:15;;;;;;;4.50;4.20;;;;;;;14.89;57.39;100723.16;4916543;28;98605;-48
2022/06/08 04:33:40;;;;;;;3.90;3.60;;;;;;;14.96;57.34;100725.31;4919013;28;96781;-46
2022/06/08 04:36:07;;;;;;;5.07;4.60;;;;;;;15.03;57.36;100723.97;4923814;28;97153;-47
2022/06/08 04:38:33;;;;;;;4.37;4.00;;;;;;;15.07;57.53;100724.44;4922641;28;96994;-47
2022/06/08 04:41:00;;;;;;;5.07;4.67;;;;;;;15.14;57.47;100725.88;4920747;28;96922;-47
2022/06/08 04:43:25;;;;;;;4.70;4.40;;;;;;;15.18;57.58;100726.34;4921250;28;97589;-46
2022/06/08 04:45:51;;;;;;;4.07;3.77;;;;;;;15.24;57.65;100733.31;4928089;28;97377;-48
2022/06/08 04:48:16;;;;;;;4.20;3.93;;;;;;;15.29;57.69;100728.97;4922239;28;98704;-45
2022/06/08 04:50:41;;;;;;;3.20;3.10;;;;;;;15.32;57.77;100727.91;4922583;28;97295;-46
2022/06/08 04:53:07;;;;;;;4.57;4.17;;;;;;;15.35;57.74;100732.44;4920949;28;97270;-47
2022/06/08 04:55:32;;;;;;;4.27;3.90;;;;;;;15.41;57.76;100724.78;4921616;28;96793;-46
2022/06/08 04:57:58;;;;;;;5.13;4.70;;;;;;;15.44;57.77;100715.47;4920158;28;97046;-46
2022/06/08 05:00:24;;;;;;;4.13;3.73;;;;;;;15.49;57.83;100726.47;4922846;28;97003;-46
2022/06/08 05:02:52;;;;;;;4.57;4.20;;;;;;;15.56;57.89;100719.56;4919253;28;97271;-49
2022/06/08 05:05:17;;;;;;;4.00;3.70;;;;;;;15.62;57.89;100720.22;4919807;28;97305;-46
2022/06/08 05:07:42;;;;;;;4.67;4.27;;;;;;;15.67;58.00;100720.16;4924763;28;96861;-45
2022/06/08 05:10:09;;;;;;;4.20;3.80;;;;;;;15.75;57.98;100725.84;4920024;28;97537;-48
2022/06/08 05:12:36;;;;;;;4.03;3.73;;;;;;;15.82;57.94;100714.16;4925726;28;96945;-45
2022/06/08 05:15:07;;;;;;;4.33;4.03;;;;;;;15.90;57.99;100717.81;4918398;28;97296;-46
2022/06/08 05:17:32;;;;;;;4.80;4.50;;;;;;;15.97;57.94;100717.19;4921616;28;97253;-47
2022/06/08 05:19:58;;;;;;;5.13;4.63;;;;;;;16.05;58.06;100715.31;4916781;28;96729;-46
2022/06/08 05:22:23;;;;;;;4.83;4.20;;;;;;;16.16;58.04;100715.13;4920711;28;99621;-45
2022/06/08 05:24:49;;;;;;;4.80;4.50;;;;;;;16.23;58.11;100708.94;4918428;28;97243;-49
2022/06/08 05:27:15;;;;;;;4.77;4.37;;;;;;;16.34;58.13;100705.22;4920637;28;96872;-46
2022/06/08 05:29:40;;;;;;;5.20;4.80;;;;;;;16.44;57.96;100714.66;4920855;28;97482;-46
2022/06/08 05:32:06;;;;;;;5.27;4.80;;;;;;;16.53;58.11;100705.97;4919725;28;98736;-46
2022/06/08 05:34:31;;;;;;;5.17;4.77;;;;;;;16.61;57.97;100701.25;4922805;28;98007;-46
2022/06/08 05:36:56;;;;;;;4.90;4.60;;;;;;;16.70;58.05;100705.63;4917884;28;97253;-46
2022/06/08 05:39:22;;;;;;;5.67;5.07;;;;;;;16.79;57.97;100711.53;4920241;28;98119;-46
2022/06/08 05:41:47;;;;;;;4.97;4.63;;;;;;;16.90;58.14;100713.34;4921517;28;97317;-46
2022/06/08 05:44:13;;;;;;;6.00;5.00;;;;;;;16.99;57.99;100719.22;4917575;28;97021;-46
2022/06/08 05:46:38;;;;;;;6.00;5.50;;;;;;;17.11;58.04;100714.94;4921966;28;97053;-46
2022/06/08 05:49:04;;;;;;;5.70;5.20;;;;;;;17.20;58.19;100711.72;4920545;28;97517;-46
2022/06/08 05:51:29;;;;;;;4.87;4.37;;;;;;;17.30;58.09;100714.78;4927420;28;97109;-46
2022/06/08 05:53:55;;;;;;;6.10;5.60;;;;;;;17.40;57.96;100703.97;4918730;28;96889;-47
2022/06/08 05:56:20;;;;;;;5.73;5.23;;;;;;;17.47;58.03;100715.22;4920389;28;97424;-46
2022/06/08 05:58:45;;;;;;;5.73;5.23;;;;;;;17.52;57.99;100728.25;4922700;28;97477;-46
2022/06/08 06:01:11;;;;;;;5.83;5.17;;;;;;;17.58;58.12;100714.97;4919334;28;97176;-46
2022/06/08 06:03:36;;;;;;;5.60;4.90;;;;;;;17.64;58.11;100706.50;4919576;28;97396;-47
2022/06/08 06:06:01;;;;;;;5.83;5.33;;;;;;;17.67;57.99;100717.31;4924673;28;97033;-47
2022/06/08 06:08:27;;;;;;;5.00;4.67;;;;;;;17.73;58.11;100719.97;4917834;28;98944;-46
2022/06/08 06:10:52;;;;;;;6.57;5.77;;;;;;;17.79;58.23;100723.38;4926066;28;97239;-47
2022/06/08 06:13:19;;;;;;;5.43;4.93;;;;;;;17.82;58.21;100719.50;4921998;28;96881;-47
2022/06/08 06:15:46;;;;;;;6.63;6.03;;;;;;;17.87;58.34;100719.38;4923740;28;96951;-48
2022/06/08 06:18:12;;;;;;;6.03;5.53;;;;;;;17.92;58.28;100723.31;4924582;28;97442;-46
2022/06/08 06:20:38;;;;;;;6.70;6.00;;;;;;;17.95;58.40;100722.97;4920469;28;105054;-47
2022/06/08 06:23:04;;;;;;;6.13;5.57;;;;;;;18.00;58.34;100728.97;4919320;28;96807;-47
2022/06/08 06:25:29;;;;;;;5.80;5.30;;;;;;;18.06;58.52;100726.78;4922128;28;96972;-47
2022/06/08 06:27:55;;;;;;;5.87;5.30;;;;;;;18.14;58.52;100730.41;4921838;28;97020;-47
2022/06/08 06:30:20;;;;;;;5.47;5.07;;;;;;;18.21;58.77;100729.72;4923916;28;101504;-46
2022/06/08 06:32:46;;;;;;;6.07;5.57;;;;;;;18.30;58.48;100726.47;4927392;28;97069;-46
2022/06/08 06:35:25;;;;;;;6.03;4.90;;;;;;;18.39;59.13;100735.06;4927095;28;97318;-46
2022/06/08 06:37:52;;;;;;;6.13;5.27;;;;;;;18.47;58.51;100724.03;4921278;28;97856;-47
2022/06/08 06:40:17;;;;;;;5.50;4.93;;;;;;;18.53;58.45;100721.84;4924467;28;97097;-47
2022/06/08 06:42:43;;;;;;;5.03;4.63;;;;;;;18.61;58.51;100714.28;4920355;28;97368;-47
2022/06/08 06:45:10;;;;;;;5.10;4.77;;;;;;;18.72;58.39;100718.81;4917952;28;97088;-46
2022/06/08 06:47:36;;;;;;;4.40;4.10;;;;;;;18.84;58.54;100714.44;4922269;28;102322;-46
2022/06/08 06:50:03;;;;;;;4.60;4.30;;;;;;;19.02;58.72;100716.97;4921259;28;97233;-47
2022/06/08 06:52:29;;;;;;;5.53;5.07;;;;;;;19.24;58.63;100726.75;4922623;28;96868;-46
2022/06/08 06:54:55;;;;;;;7.60;5.93;;;;;;;19.43;58.42;100727.22;4927157;28;97206;-47
2022/06/08 06:57:20;;;;;;;7.33;6.50;;;;;;;19.54;58.26;100726.16;4921512;28;98156;-47
2022/06/08 06:59:45;;;;;;;6.60;6.00;;;;;;;19.67;58.21;100732.34;4923688;28;97499;-46
2022/06/08 07:02:16;;;;;;;8.63;7.00;;;;;;;19.80;58.10;100721.00;4922162;28;97605;-46
2022/06/08 07:04:41;;;;;;;7.23;6.53;;;;;;;19.91;58.03;100726.25;4919595;28;96788;-47
2022/06/08 07:07:07;;;;;;;7.63;6.97;;;;;;;20.01;57.92;100720.84;4916570;28;96945;-47
2022/06/08 07:09:33;;;;;;;8.00;7.17;;;;;;;20.08;57.93;100720.88;4919017;28;97146;-48
2022/06/08 07:11:59;;;;;;;9.67;8.50;;;;;;;20.14;57.96;100718.63;4921527;28;97086;-47
2022/06/08 07:14:24;;;;;;;9.73;8.80;;;;;;;20.21;57.88;100725.56;4918714;28;97114;-47
2022/06/08 07:16:51;;;;;;;10.13;9.10;;;;;;;20.28;57.76;100724.84;4916690;28;98287;-47
2022/06/08 07:19:18;;;;;;;10.17;9.20;;;;;;;20.37;57.64;100715.13;4923674;28;97142;-47
2022/06/08 07:21:44;;;;;;;10.93;9.30;;;;;;;20.47;57.60;100716.06;4919950;28;97234;-47
2022/06/08 07:24:17;;;;;;;9.77;8.77;;;;;;;20.57;57.86;100712.16;4914989;28;96850;-47
2022/06/08 07:26:43;;;;;;;9.10;8.30;;;;;;;20.69;57.50;100712.50;4911173;28;102163;-47
2022/06/08 07:29:08;;;;;;;11.03;9.87;;;;;;;20.77;57.57;100702.78;4915973;28;97155;-47
2022/06/08 07:31:34;;;;;;;9.90;8.90;;;;;;;20.88;57.41;100696.78;4917401;28;96886;-47
2022/06/08 07:34:00;;;;;;;8.20;7.27;;;;;;;20.99;57.28;100689.31;4922220;28;97049;-48
2022/06/08 07:36:25;;;;;;;7.73;7.07;;;;;;;21.05;57.08;100689.88;4923287;28;97382;-46
2022/06/08 07:38:50;;;;;;;8.20;7.30;;;;;;;21.09;56.86;100688.19;4924002;28;97561;-48
2022/06/08 07:41:16;;;;;;;7.20;6.57;;;;;;;21.18;56.95;100679.22;4925114;28;97365;-47
2022/06/08 07:43:41;;;;;;;7.50;6.53;;;;;;;21.26;56.81;100676.38;4917560;28;97125;-47
2022/06/08 07:46:07;;;;;;;6.57;6.03;;;;;;;21.32;56.64;100669.25;4919706;28;97182;-47
2022/06/08 07:51:17;;;;;;;7.57;6.87;;;;;;;21.52;55.99;100670.25;4923193;28;97218;-47
2022/06/08 07:53:42;;;;;;;6.40;5.80;;;;;;;21.60;56.15;100662.59;4922546;28;97187;-47
2022/06/08 07:56:08;;;;;;;7.43;6.80;;;;;;;21.67;56.06;100659.72;4919595;28;97344;-47
2022/06/08 07:58:33;;;;;;;6.63;6.00;;;;;;;21.84;55.82;100658.34;4921920;28;97185;-47
2022/06/08 08:00:59;;;;;;;6.87;6.23;;;;;;;21.99;55.46;100653.38;4924620;28;97082;-47
2022/06/08 08:03:25;;;;;;;7.20;6.50;;;;;;;22.10;55.03;100655.72;4920261;28;96880;-47
2022/06/08 08:05:51;;;;;;;7.23;6.63;;;;;;;22.23;55.08;100652.63;4919545;28;97718;-48
2022/06/08 08:08:18;;;;;;;7.40;6.80;;;;;;;22.34;54.73;100645.78;4921188;28;97333;-46
2022/06/08 08:10:44;;;;;;;6.57;6.03;;;;;;;22.36;54.64;100638.28;4922440;28;96941;-46
2022/06/08 08:13:10;;;;;;;6.93;6.33;;;;;;;22.37;54.47;100648.16;4919925;28;96927;-47
2022/06/08 08:15:36;;;;;;;6.30;5.70;;;;;;;22.46;54.13;100643.22;4921324;28;97382;-47
2022/06/08 08:18:03;;;;;;;7.07;6.17;;;;;;;22.51;54.03;100640.19;4920945;28;97120;-48
2022/06/08 08:20:30;;;;;;;6.13;5.63;;;;;;;22.53;53.74;100639.59;4923685;28;97104;-47
2022/06/08 08:22:56;;;;;;;5.63;5.13;;;;;;;22.48;53.69;100640.59;4921865;28;97650;-47
2022/06/08 08:25:22;;;;;;;4.97;4.57;;;;;;;22.45;53.68;100644.56;4920167;28;97915;-47
2022/06/08 08:27:48;;;;;;;5.70;5.20;;;;;;;22.41;53.57;100639.34;4922708;28;98257;-48
2022/06/08 08:30:17;;;;;;;5.50;4.80;;;;;;;22.37;53.40;100642.56;4919351;28;97002;-46
2022/06/08 08:32:43;;;;;;;5.40;4.93;;;;;;;22.32;53.46;100640.72;4924099;28;97331;-47
2022/06/08 08:35:08;;;;;;;4.40;4.10;;;;;;;22.32;53.59;100637.94;4923155;28;97393;-46
2022/06/08 08:37:34;;;;;;;5.47;4.60;;;;;;;22.35;53.54;100633.25;4921635;28;97211;-48
2022/06/08 08:39:59;;;;;;;5.80;5.23;;;;;;;22.38;53.60;100630.03;4923603;28;96795;-47
2022/06/08 08:42:25;;;;;;;5.77;5.27;;;;;;;22.44;53.40;100623.44;4917049;28;96971;-47
2022/06/08 08:45:05;;;;;;;4.77;4.47;;;;;;;22.53;53.05;100625.59;4930041;28;97185;-49
2022/06/08 08:47:48;;;;;;;4.07;3.77;;;;;;;22.73;53.09;100624.47;4922822;28;101512;-48
2022/06/08 08:50:26;;;;;;;4.20;3.80;;;;;;;22.94;52.47;100613.53;4920130;28;97089;-48
2022/06/08 08:53:10;;;;;;;3.83;3.53;;;;;;;23.10;51.63;100614.84;4921379;28;97193;-47
2022/06/08 08:55:43;;;;;;;3.17;3.00;;;;;;;23.19;52.31;100616.97;4919666;28;102235;-49
2022/06/08 08:58:12;;;;;;;3.53;3.27;;;;;;;23.28;51.96;100604.31;4921852;28;97633;-46
2022/06/08 09:00:52;;;;;;;3.87;3.47;;;;;;;23.37;50.51;100604.38;4917312;28;97246;-49
2022/06/08 09:03:29;;;;;;;3.30;3.00;;;;;;;23.43;51.06;100593.66;4921542;28;97420;-49
2022/06/08 09:06:00;;;;;;;2.70;2.60;;;;;;;23.59;51.08;100589.25;4919165;28;97593;-47
2022/06/08 09:08:27;;;;;;;2.87;2.67;;;;;;;23.70;50.86;100591.53;4923923;28;97601;-46
2022/06/08 09:10:57;;;;;;;2.63;2.53;;;;;;;23.75;50.17;100576.47;4924261;28;96988;-48
2022/06/08 09:13:29;;;;;;;3.27;3.07;;;;;;;23.75;50.73;100586.97;4918364;28;97353;-49
2022/06/08 09:15:57;;;;;;;2.63;2.43;;;;;;;23.74;49.72;100591.81;4921525;28;97367;-46
2022/06/08 09:18:39;;;;;;;2.47;2.27;;;;;;;23.79;48.20;100587.25;4920091;28;97175;-49
2022/06/08 09:21:23;;;;;;;2.33;2.23;;;;;;;23.81;48.13;100585.34;4918408;28;96901;-47
2022/06/08 09:23:51;;;;;;;2.40;2.30;;;;;;;23.85;48.94;100591.28;4917671;28;97259;-46
2022/06/08 09:26:32;;;;;;;2.63;2.43;;;;;;;23.91;48.43;100582.59;4949151;23;98417;-84
2022/06/08 09:29:08;;;;;;;2.40;2.20;;;;;;;24.07;48.13;100583.81;4942871;28;105388;-83
2022/06/08 09:31:36;;;;;;;2.60;2.50;;;;;;;24.21;48.92;100581.31;4942379;28;96760;-82
2022/06/08 09:34:06;;;;;;;2.67;2.47;;;;;;;24.32;48.03;100586.38;4937181;28;97119;-83
2022/06/08 09:36:31;;;;;;;3.00;2.80;;;;;;;24.40;48.28;100586.97;4909659;28;96886;-83
2022/06/08 09:38:57;;;;;;;3.07;2.87;;;;;;;24.49;48.27;100594.66;4908475;28;96847;-84
2022/06/08 09:41:36;;;;;;;3.73;3.50;;;;;;;24.66;47.21;100574.09;4909802;28;97305;-82
2022/06/08 09:44:15;;;;;;;3.40;3.20;;;;;;;24.67;46.97;100570.69;4925089;28;98708;-83
2022/06/08 09:52:46;;;;;;;3.60;3.40;;;;;;;24.74;47.43;100561.34;4908875;28;97254;-84
2022/06/08 09:55:27;;;;;;;3.53;3.23;;;;;;;24.88;47.43;100561.66;4919952;28;97134;-84
2022/06/08 09:58:07;;;;;;;3.30;3.10;;;;;;;24.97;47.25;100563.69;4906987;28;102181;-84
2022/06/08 10:00:52;;;;;;;3.00;2.80;;;;;;;24.94;46.95;100570.53;4923493;28;103799;-83
2022/06/08 10:03:32;;;;;;;3.40;3.20;;;;;;;24.92;46.61;100559.84;4904355;28;97486;-84
2022/06/08 10:06:19;;;;;;;4.23;3.00;;;;;;;24.94;47.20;100560.03;4916581;28;97038;-83
2022/06/08 10:09:19;;;;;;;2.47;2.37;;;;;;;25.09;46.34;100562.50;4927477;28;104593;-83
2022/06/08 10:11:59;;;;;;;2.70;2.50;;;;;;;25.15;46.98;100554.47;4907854;28;101850;-83
2022/06/08 10:14:42;;;;;;;2.97;2.77;;;;;;;25.28;46.98;100553.25;4909470;28;96773;-83
2022/06/08 10:17:16;;;;;;;5.23;2.60;;;;;;;25.36;46.23;100553.09;4906336;28;97192;-82
2022/06/08 10:20:04;;;;;;;2.67;2.47;;;;;;;25.32;45.23;100559.16;4911463;28;96921;-83
2022/06/08 10:22:43;;;;;;;2.30;2.20;;;;;;;25.34;45.52;100553.66;4912514;28;102945;-84
2022/06/08 10:25:14;;;;;;;2.80;1.93;;;;;;;25.28;45.49;100548.34;4930314;28;97210;-85
2022/06/08 10:27:54;;;;;;;2.00;1.90;;;;;;;25.17;45.69;100553.88;4907689;28;97174;-82
2022/06/08 10:30:35;;;;;;;2.10;2.00;;;;;;;25.07;45.60;100550.34;4905692;28;97163;-83
2022/06/08 10:33:10;;;;;;;2.00;1.90;;;;;;;25.19;45.55;100551.19;4910099;28;98286;-84
2022/06/08 10:35:46;;;;;;;2.07;1.93;;;;;;;25.26;45.61;100567.94;4920699;28;97273;-83
2022/06/08 10:38:42;;;;;;;2.03;1.93;;;;;;;25.27;45.23;100544.06;4907655;28;97550;-83
2022/06/08 10:43:55;;;;;;;2.40;1.70;;;;;;;25.26;45.82;100539.78;4908869;28;100110;-84
2022/06/08 10:46:29;;;;;;;4.73;1.40;;;;;;;25.25;44.73;100541.09;4906193;28;97505;-84
2022/06/08 10:48:55;;;;;;;1.50;1.40;;;;;;;25.21;45.58;100562.59;4907412;28;97472;-83
2022/06/08 10:51:28;;;;;;;1.60;1.50;;;;;;;25.20;45.24;100550.63;4907936;28;100651;-83
2022/06/08 10:56:38;;;;;;;1.70;1.60;;;;;;;25.23;45.34;100540.22;4907616;28;97493;-83
2022/06/08 10:59:06;;;;;;;2.40;1.50;;;;;;;25.20;44.98;100547.81;4925922;28;96821;-83
2022/06/08 11:01:47;;;;;;;1.47;1.47;;;;;;;25.19;44.80;100539.94;4905497;28;97122;-84
2022/06/08 11:04:30;;;;;;;1.60;1.50;;;;;;;25.30;44.55;100540.06;4904100;28;102862;-83
2022/06/08 11:07:10;;;;;;;1.70;1.60;;;;;;;25.52;44.22;100534.50;4908168;28;96838;-83
2022/06/08 11:09:36;;;;;;;1.20;1.20;;;;;;;25.78;44.16;100537.03;4905703;28;97193;-82
2022/06/08 11:12:20;;;;;;;1.17;1.13;;;;;;;26.01;43.50;100570.28;4905420;28;97057;-83
2022/06/08 11:14:56;;;;;;;1.30;1.30;;;;;;;26.20;43.11;100544.78;4906290;28;103288;-83
2022/06/08 11:17:45;;;;;;;1.30;1.30;;;;;;;26.15;41.95;100540.22;4903473;28;96941;-83
2022/06/08 11:20:16;;;;;;;1.23;1.23;;;;;;;26.00;43.38;100534.94;4908692;28;97871;-83
2022/06/08 11:22:51;;;;;;;1.43;1.17;;;;;;;25.87;42.79;100532.66;4906867;28;97038;-84
2022/06/08 11:25:24;;;;;;;1.87;1.37;;;;;;;25.73;43.81;100562.72;4905457;28;97051;-84
2022/06/08 11:28:24;;;;;;;3.73;1.20;;;;;;;25.60;42.91;100529.44;4911644;28;96939;-84
2022/06/08 11:30:52;;;;;;;1.43;1.17;;;;;;;25.56;43.79;100532.69;4905373;28;96610;-84
2022/06/08 11:33:20;;;;;;;1.43;1.33;;;;;;;25.49;43.97;100544.88;4906591;28;99041;-84
2022/06/08 11:35:52;;;;;;;1.30;1.20;;;;;;;25.50;43.70;100531.53;4923050;28;100384;-83
2022/06/08 11:38:36;;;;;;;1.17;1.17;;;;;;;25.73;43.01;100523.28;4904437;28;97189;-84
2022/06/08 11:41:20;;;;;;;1.53;1.13;;;;;;;26.08;42.17;100527.03;4905117;28;96942;-84
2022/06/08 11:43:47;;;;;;;1.30;1.30;;;;;;;26.27;43.09;100521.28;4922721;28;103683;-84
2022/06/08 11:46:38;;;;;;;1.30;1.30;;;;;;;26.45;42.00;100522.44;4904851;28;99732;-83
2022/06/08 11:49:07;;;;;;;1.43;1.30;;;;;;;26.44;42.56;100520.25;4906388;28;97060;-84
2022/06/08 11:51:39;;;;;;;1.00;1.00;;;;;;;26.31;41.35;100501.81;4907702;28;97353;-84
2022/06/08 11:54:22;;;;;;;1.10;1.10;;;;;;;26.33;42.14;100506.81;4905417;28;100631;-85
2022/06/08 11:57:17;;;;;;;1.63;1.53;;;;;;;26.43;42.34;100502.56;4906964;28;101328;-84